Greymouth, New Zealand
Current Conditions -  °F | °C
As of 6:30 AM on Friday 28 Nov 2014 (Local Time) from NZCH Reporting Station
Overcast Overcast  
Wind Chill: 10°   Ceiling: 7500
Heat Index: 10°   Visibility: 6mi
Dew Point:   Wind: 7mph
Humidity: 82%   Direction: 350°N
Pressure: 29.56"   Gusts: NA
Location:  42.46°S, 171.21°E
Report Text: NZCH 271830Z AUTO 35006KT 9999 OVC075/// 10/07 Q1001 BECMG20010KT
Loading
Personal Weather Stations






























Interactive Weather Map New forecast layout! Learn more

10-Day Weather Forecast

Advertisements
Track Severe Weather on mobile